Time;durP1;ratioP1;P1;durP2;ratioP2;P2;SDS_P1;SDS_P2;PMS_P1;PMS_P2;Temp;Humidity;BMP_temperature;BMP_pressure;BME280_temperature;BME280_humidity;BME280_pressure;Samples;Min_cycle;Max_cycle;Signal;HPM_P1;HPM_P2
2023/06/04 00:01:07;;;;;;;5.30;3.67;;;;;;;20.33;77.11;99958.34;5121807;27;20034;-65
2023/06/04 00:03:34;;;;;;;6.82;4.22;;;;;;;20.39;77.92;99961.00;5122718;27;20242;-65
2023/06/04 00:05:59;;;;;;;4.95;3.80;;;;;;;20.51;77.15;99958.41;5124877;27;20071;-65
2023/06/04 00:08:25;;;;;;;5.10;3.55;;;;;;;20.51;76.89;99954.91;5125645;27;20286;-65
2023/06/04 00:10:51;;;;;;;5.55;3.92;;;;;;;20.50;76.62;99955.94;5124856;27;20096;-65
2023/06/04 00:13:16;;;;;;;4.70;3.65;;;;;;;20.49;76.21;99959.66;5121352;27;20110;-65
2023/06/04 00:15:42;;;;;;;5.05;3.90;;;;;;;20.46;77.00;99963.63;5126425;27;20384;-65
2023/06/04 00:18:07;;;;;;;4.63;3.88;;;;;;;20.44;76.50;99954.94;5121742;27;20028;-65
2023/06/04 00:20:33;;;;;;;4.75;3.97;;;;;;;20.51;76.72;99955.72;5122319;27;20126;-65
2023/06/04 00:22:58;;;;;;;5.78;3.80;;;;;;;20.63;76.83;99961.19;5123616;27;20357;-65
2023/06/04 00:25:24;;;;;;;5.03;3.80;;;;;;;20.66;76.21;99953.50;5123945;27;20288;-65
2023/06/04 00:27:49;;;;;;;4.50;3.63;;;;;;;20.61;76.74;99947.97;5121252;27;20290;-65
2023/06/04 00:30:15;;;;;;;6.35;4.15;;;;;;;20.50;78.51;99951.38;5124966;27;20028;-65
2023/06/04 00:32:40;;;;;;;5.60;3.85;;;;;;;20.34;79.41;99951.91;5123792;27;20036;-65
2023/06/04 00:35:06;;;;;;;4.05;3.63;;;;;;;20.13;80.79;99950.44;5123430;27;20040;-65
2023/06/04 00:37:32;;;;;;;5.38;4.32;;;;;;;19.97;81.41;99946.41;5121718;27;20027;-65
2023/06/04 00:39:58;;;;;;;4.70;3.75;;;;;;;19.82;82.16;99953.16;5122527;27;20362;-65
2023/06/04 00:42:24;;;;;;;4.90;4.10;;;;;;;19.70;82.46;99950.31;5120717;27;20059;-65
2023/06/04 00:44:49;;;;;;;4.50;3.90;;;;;;;19.77;84.72;99951.13;5123949;27;20054;-65
2023/06/04 00:47:16;;;;;;;7.18;3.88;;;;;;;19.73;85.44;99950.69;5122821;27;20027;-65
2023/06/04 00:49:42;;;;;;;6.38;4.25;;;;;;;19.60;86.32;99942.72;5122271;27;20043;-65
2023/06/04 00:52:13;;;;;;;5.88;4.07;;;;;;;19.51;87.81;99949.34;5129825;27;20348;-65
2023/06/04 00:54:39;;;;;;;4.82;4.00;;;;;;;19.31;87.38;99952.13;5120261;27;20076;-65
2023/06/04 00:57:05;;;;;;;6.20;4.00;;;;;;;19.34;88.64;99942.81;5123923;27;20322;-65
2023/06/04 00:59:32;;;;;;;5.07;4.30;;;;;;;19.31;88.78;99952.13;5119967;27;20039;-65
2023/06/04 01:02:06;;;;;;;6.50;4.53;;;;;;;19.33;89.03;99955.44;5123353;27;20085;-65
2023/06/04 01:04:44;;;;;;;4.60;4.03;;;;;;;19.33;89.08;99949.22;5120710;28;20066;-65
2023/06/04 01:07:13;;;;;;;5.90;4.03;;;;;;;19.32;88.97;99950.28;5121757;27;20035;-65
2023/06/04 01:09:38;;;;;;;6.57;4.07;;;;;;;19.38;89.47;99952.94;5125544;27;20067;-65
2023/06/04 01:12:05;;;;;;;5.57;4.40;;;;;;;19.49;87.93;99961.34;5124302;28;20034;-65
2023/06/04 01:14:33;;;;;;;5.97;3.85;;;;;;;19.59;86.79;99961.72;5102092;28;20070;-65
2023/06/04 01:17:08;;;;;;;5.47;4.30;;;;;;;19.66;85.82;99954.47;5123857;28;20031;-65
2023/06/04 01:20:12;;;;;;;5.88;4.28;;;;;;;19.79;85.38;99950.91;5122200;27;20043;-65
2023/06/04 01:22:51;;;;;;;4.70;3.60;;;;;;;19.92;84.23;99954.31;5118633;28;20098;-65
2023/06/04 01:25:26;;;;;;;5.43;3.70;;;;;;;20.03;83.12;99958.16;5123589;28;20337;-65
2023/06/04 01:27:56;;;;;;;5.20;3.47;;;;;;;20.12;82.11;99958.72;5122677;28;20031;-65
2023/06/04 01:30:34;;;;;;;7.20;3.78;;;;;;;20.23;81.19;99960.69;5123947;28;20088;-65
2023/06/04 01:33:01;;;;;;;5.97;3.28;;;;;;;20.29;79.89;99952.56;5122814;28;20027;-65
2023/06/04 01:35:27;;;;;;;7.53;3.95;;;;;;;20.40;79.02;99967.19;5121517;28;20035;-65
2023/06/04 01:37:54;;;;;;;7.35;4.25;;;;;;;20.43;79.28;99966.75;5123868;28;20039;-65
2023/06/04 01:40:20;;;;;;;4.47;3.72;;;;;;;20.48;79.01;99958.03;5125115;28;20027;-65
2023/06/04 01:42:46;;;;;;;4.05;3.55;;;;;;;20.47;78.28;99962.59;5123723;28;20268;-65
2023/06/04 01:45:11;;;;;;;4.75;4.00;;;;;;;20.36;78.69;99966.78;5120584;28;20031;-65
2023/06/04 01:47:37;;;;;;;6.22;4.28;;;;;;;20.34;78.99;99962.66;5119184;28;20044;-65
2023/06/04 01:50:09;;;;;;;5.05;4.00;;;;;;;20.28;79.08;99961.69;5124479;28;20031;-65
2023/06/04 01:52:38;;;;;;;6.50;4.28;;;;;;;20.19;80.06;99960.31;5125324;28;20023;-65
2023/06/04 01:55:05;;;;;;;5.70;4.07;;;;;;;20.16;79.97;99960.75;5126342;27;20088;-65
2023/06/04 01:57:30;;;;;;;5.20;4.15;;;;;;;20.05;80.51;99958.78;5130396;27;20043;-65
2023/06/04 01:59:56;;;;;;;6.65;4.63;;;;;;;19.96;80.72;99966.28;5128085;27;20828;-65
2023/06/04 02:02:21;;;;;;;5.18;4.07;;;;;;;19.94;80.67;99964.84;5125837;27;20023;-65
2023/06/04 02:04:47;;;;;;;4.50;4.10;;;;;;;19.99;80.47;99967.72;5124938;27;20039;-65
2023/06/04 02:07:20;;;;;;;5.32;4.22;;;;;;;20.01;80.72;99974.50;5126866;27;20043;-65
2023/06/04 02:09:48;;;;;;;5.47;4.37;;;;;;;20.01;80.64;99968.31;5126984;27;20069;-65
2023/06/04 02:12:14;;;;;;;6.10;4.30;;;;;;;20.03;80.96;99977.81;5122791;27;20028;-65
2023/06/04 02:14:41;;;;;;;6.95;4.53;;;;;;;20.01;80.91;99973.69;5125202;27;20047;-65
2023/06/04 02:17:12;;;;;;;5.53;3.88;;;;;;;20.00;80.65;99975.56;5124426;27;20038;-65
2023/06/04 02:19:39;;;;;;;5.45;4.50;;;;;;;19.96;80.81;99977.03;5126562;27;20043;-65
2023/06/04 02:22:05;;;;;;;5.32;4.38;;;;;;;19.93;81.07;99982.84;5127591;27;20104;-65
2023/06/04 02:24:31;;;;;;;5.93;4.22;;;;;;;19.87;81.33;99989.06;5129660;27;20063;-65
2023/06/04 02:26:56;;;;;;;7.10;4.32;;;;;;;19.75;81.69;99980.84;5124135;27;20065;-65
2023/06/04 02:29:22;;;;;;;4.50;4.03;;;;;;;19.73;82.23;99992.84;5122136;27;20261;-65
2023/06/04 02:31:48;;;;;;;7.05;4.05;;;;;;;19.74;82.21;99997.19;5122981;27;20055;-65
2023/06/04 02:34:14;;;;;;;5.97;4.28;;;;;;;19.77;81.98;99994.94;5121991;27;20034;-65
2023/06/04 02:36:39;;;;;;;6.60;4.20;;;;;;;19.91;81.83;100002.91;5127270;27;20310;-65
2023/06/04 02:39:04;;;;;;;6.03;4.30;;;;;;;20.01;81.56;100006.75;5132327;27;20027;-65
2023/06/04 02:41:30;;;;;;;9.32;4.32;;;;;;;20.06;81.02;100008.81;5132097;27;20031;-65
2023/06/04 02:43:55;;;;;;;5.10;4.47;;;;;;;20.06;80.52;100011.50;5124725;27;20035;-65
2023/06/04 02:46:20;;;;;;;6.68;4.30;;;;;;;19.96;80.77;100009.28;5122297;27;20035;-65
2023/06/04 02:48:46;;;;;;;6.00;4.30;;;;;;;19.98;80.75;100011.75;5127668;27;20039;-65
2023/06/04 02:51:11;;;;;;;5.22;4.00;;;;;;;19.95;80.79;100009.50;5126205;27;20354;-65
2023/06/04 02:53:37;;;;;;;6.00;4.07;;;;;;;20.02;80.72;100018.34;5124048;27;20034;-65
2023/06/04 02:56:02;;;;;;;6.95;4.82;;;;;;;20.13;80.60;100019.50;5125612;27;20045;-65
2023/06/04 02:58:28;;;;;;;5.75;4.25;;;;;;;20.16;80.97;100016.38;5128815;27;20057;-65
2023/06/04 03:00:54;;;;;;;5.88;4.32;;;;;;;20.09;80.22;100014.56;5127313;27;20049;-65
2023/06/04 03:03:20;;;;;;;6.05;4.20;;;;;;;20.11;80.05;100014.34;5123776;27;20031;-65
2023/06/04 03:05:46;;;;;;;5.70;4.70;;;;;;;20.23;79.86;100023.38;5125621;27;20031;-65
2023/06/04 03:08:11;;;;;;;5.55;4.32;;;;;;;20.25;79.84;100020.47;5124709;27;20043;-65
2023/06/04 03:10:37;;;;;;;5.68;3.90;;;;;;;20.23;80.28;100026.06;5122915;27;20035;-65
2023/06/04 03:13:03;;;;;;;5.60;4.10;;;;;;;20.20;80.88;100029.19;5126537;27;20043;-65
2023/06/04 03:15:29;;;;;;;5.65;4.25;;;;;;;20.24;81.72;100021.50;5125116;27;20034;-65
2023/06/04 03:17:54;;;;;;;5.35;4.28;;;;;;;20.28;81.79;100028.09;5123057;27;20043;-65
2023/06/04 03:20:24;;;;;;;5.68;4.60;;;;;;;20.29;81.74;100032.41;5127499;27;20183;-65
2023/06/04 03:22:50;;;;;;;7.10;4.68;;;;;;;20.34;83.72;100037.97;5126307;27;20035;-65
2023/06/04 03:25:15;;;;;;;9.98;4.68;;;;;;;20.38;84.11;100039.19;5122982;27;20051;-65
2023/06/04 03:27:41;;;;;;;7.53;4.80;;;;;;;20.42;83.55;100042.28;5123880;27;20444;-65
2023/06/04 03:30:07;;;;;;;7.15;4.32;;;;;;;20.46;82.56;100052.38;5126395;27;20565;-65
2023/06/04 03:32:32;;;;;;;7.75;4.85;;;;;;;20.43;83.87;100055.50;5123678;27;20325;-65
2023/06/04 03:34:58;;;;;;;7.90;4.85;;;;;;;20.46;83.51;100049.69;5123335;27;20056;-65
2023/06/04 03:37:23;;;;;;;7.93;5.32;;;;;;;20.44;84.37;100045.59;5124141;27;20232;-65
2023/06/04 03:39:49;;;;;;;7.03;4.55;;;;;;;20.45;85.66;100047.22;5124055;27;20028;-65
2023/06/04 03:42:14;;;;;;;5.47;4.40;;;;;;;20.48;85.32;100049.47;5121650;27;20057;-65
2023/06/04 03:44:40;;;;;;;7.28;5.13;;;;;;;20.53;84.91;100058.53;5124999;27;20188;-65
2023/06/04 03:47:05;;;;;;;6.15;4.97;;;;;;;20.59;85.77;100057.66;5123043;27;20035;-65
2023/06/04 03:49:31;;;;;;;8.82;4.57;;;;;;;20.59;83.64;100059.53;5122041;27;20031;-65
2023/06/04 03:51:56;;;;;;;7.15;5.32;;;;;;;20.55;82.32;100050.25;5125373;27;20046;-65
2023/06/04 03:54:22;;;;;;;7.28;4.60;;;;;;;20.54;83.16;100062.06;5125455;27;20031;-65
2023/06/04 03:56:47;;;;;;;7.85;4.88;;;;;;;20.53;83.66;100063.91;5125495;27;20073;-65
2023/06/04 03:59:13;;;;;;;8.52;5.90;;;;;;;20.58;83.00;100056.00;5122410;27;20258;-65
2023/06/04 04:01:39;;;;;;;8.05;5.15;;;;;;;20.66;82.32;100065.69;5121028;27;20062;-65
2023/06/04 04:04:05;;;;;;;6.70;4.63;;;;;;;20.69;82.35;100060.69;5124131;27;20099;-65
2023/06/04 04:06:30;;;;;;;7.47;4.90;;;;;;;20.73;81.54;100063.75;5124984;27;20062;-65
2023/06/04 04:08:56;;;;;;;5.82;5.00;;;;;;;20.79;80.69;100059.34;5123018;27;20431;-65
2023/06/04 04:11:21;;;;;;;9.30;5.15;;;;;;;20.82;81.53;100070.53;5121598;27;20027;-65
2023/06/04 04:13:48;;;;;;;8.63;5.43;;;;;;;20.85;81.97;100063.88;5121193;27;20309;-65
2023/06/04 04:16:13;;;;;;;7.47;5.03;;;;;;;20.84;80.10;100076.53;5122202;27;20045;-65
2023/06/04 04:18:42;;;;;;;6.50;4.90;;;;;;;20.80;80.41;100071.78;5125372;27;20043;-65
2023/06/04 04:21:08;;;;;;;5.85;4.47;;;;;;;20.70;78.90;100086.53;5123591;27;20035;-65
2023/06/04 04:23:33;;;;;;;6.13;4.75;;;;;;;20.62;78.34;100080.63;5122348;27;20067;-65
2023/06/04 04:25:59;;;;;;;5.70;4.57;;;;;;;20.53;80.30;100090.81;5126455;27;20035;-65
2023/06/04 04:28:28;;;;;;;7.45;4.72;;;;;;;20.50;81.85;100090.44;5124463;27;20320;-65
2023/06/04 04:30:57;;;;;;;5.53;4.60;;;;;;;20.39;82.35;100090.09;5122905;27;20038;-65
2023/06/04 04:33:24;;;;;;;6.10;4.60;;;;;;;20.34;83.31;100097.13;5122861;27;20059;-65
2023/06/04 04:35:50;;;;;;;6.13;4.50;;;;;;;20.30;83.52;100087.84;5123209;27;20066;-65
2023/06/04 04:38:17;;;;;;;5.05;4.50;;;;;;;20.34;83.41;100089.06;5122006;27;20039;-65
2023/06/04 04:40:42;;;;;;;6.00;4.53;;;;;;;20.32;83.69;100091.97;5124871;27;20133;-65
2023/06/04 04:43:08;;;;;;;9.55;4.30;;;;;;;20.35;83.37;100102.28;5122160;27;20043;-65
2023/06/04 04:45:33;;;;;;;6.10;4.90;;;;;;;20.32;83.19;100099.22;5121652;27;20306;-65
2023/06/04 04:47:58;;;;;;;6.75;5.10;;;;;;;20.19;84.25;100101.97;5126545;27;20043;-65
2023/06/04 04:50:24;;;;;;;7.78;5.28;;;;;;;20.29;83.55;100100.47;5120867;27;20654;-65
2023/06/04 04:52:50;;;;;;;5.15;4.20;;;;;;;20.27;84.88;100099.88;5125786;27;20038;-65
2023/06/04 04:55:15;;;;;;;6.68;4.90;;;;;;;20.26;85.33;100114.34;5123899;27;20024;-65
2023/06/04 04:57:40;;;;;;;6.43;5.22;;;;;;;20.12;84.33;100114.66;5126301;27;20434;-65
2023/06/04 05:00:08;;;;;;;7.38;5.55;;;;;;;20.04;86.21;100118.41;5124594;27;20228;-65
2023/06/04 05:02:35;;;;;;;9.00;5.22;;;;;;;20.22;86.32;100120.38;5122620;27;20268;-65
2023/06/04 05:05:01;;;;;;;6.13;4.90;;;;;;;20.28;86.26;100122.19;5121318;27;20062;-65
2023/06/04 05:07:26;;;;;;;7.05;5.15;;;;;;;20.31;85.55;100119.09;5120731;27;20047;-65
2023/06/04 05:09:52;;;;;;;7.20;4.80;;;;;;;20.19;86.63;100124.31;5124080;27;20270;-65
2023/06/04 05:12:17;;;;;;;7.30;5.38;;;;;;;20.19;85.95;100128.88;5119274;28;20322;-65
2023/06/04 05:14:42;;;;;;;5.15;4.65;;;;;;;20.17;85.71;100118.34;5124490;27;20027;-65
2023/06/04 05:17:10;;;;;;;7.53;5.40;;;;;;;20.21;84.49;100124.94;5122800;28;20043;-65
2023/06/04 05:19:37;;;;;;;7.18;5.22;;;;;;;20.24;84.44;100127.19;5122549;28;20305;-65
2023/06/04 05:22:02;;;;;;;8.57;5.47;;;;;;;20.31;84.52;100136.03;5121855;28;20288;-65
2023/06/04 05:24:28;;;;;;;6.45;5.10;;;;;;;20.33;83.07;100138.50;5120431;28;20044;-65
2023/06/04 05:26:55;;;;;;;8.02;5.50;;;;;;;20.30;83.99;100137.09;5124887;27;20620;-65
2023/06/04 05:29:21;;;;;;;7.35;5.53;;;;;;;20.36;82.81;100140.78;5135321;27;20454;-65
2023/06/04 05:31:47;;;;;;;10.18;5.40;;;;;;;20.33;85.06;100139.34;5137718;27;20321;-65
2023/06/04 05:34:16;;;;;;;8.25;5.30;;;;;;;20.37;83.53;100137.03;5141409;27;20214;-65
2023/06/04 05:36:42;;;;;;;7.97;6.30;;;;;;;20.40;83.20;100136.63;5141424;27;20098;-65
2023/06/04 05:39:09;;;;;;;7.63;6.57;;;;;;;20.30;84.10;100142.47;5141702;27;20053;-65
2023/06/04 05:41:35;;;;;;;7.85;6.20;;;;;;;20.42;83.97;100145.31;5141445;27;20027;-65
2023/06/04 05:44:01;;;;;;;8.80;5.88;;;;;;;20.40;85.13;100152.78;5141483;27;20897;-65
2023/06/04 05:46:26;;;;;;;8.35;6.15;;;;;;;20.44;83.85;100164.75;5142014;27;20058;-65
2023/06/04 05:48:52;;;;;;;7.78;6.00;;;;;;;20.47;85.07;100160.81;5141738;27;20049;-65
2023/06/04 05:51:17;;;;;;;8.88;6.50;;;;;;;20.44;85.65;100163.94;5142279;27;20035;-65
2023/06/04 05:53:42;;;;;;;9.27;6.43;;;;;;;20.34;85.91;100167.06;5142450;27;20080;-65
2023/06/04 05:56:08;;;;;;;9.48;6.50;;;;;;;20.18;88.90;100168.38;5141938;27;20039;-65
2023/06/04 05:58:37;;;;;;;7.35;5.97;;;;;;;20.22;87.75;100174.97;5143021;27;20030;-65
2023/06/04 06:01:03;;;;;;;6.63;6.00;;;;;;;20.04;89.17;100181.06;5142275;27;20758;-65
2023/06/04 06:03:28;;;;;;;8.75;6.70;;;;;;;20.01;88.70;100178.78;5142413;27;20034;-65
2023/06/04 06:05:54;;;;;;;9.80;6.85;;;;;;;19.81;90.73;100183.41;5142406;27;20050;-65
2023/06/04 06:08:20;;;;;;;8.75;5.85;;;;;;;19.84;92.04;100185.69;5142232;27;20038;-65
2023/06/04 06:10:46;;;;;;;8.35;6.55;;;;;;;19.91;92.59;100189.16;5141985;27;20328;-65
2023/06/04 06:13:11;;;;;;;8.43;6.25;;;;;;;20.02;93.04;100191.19;5142667;27;20037;-65
2023/06/04 06:15:37;;;;;;;7.68;6.32;;;;;;;19.75;94.90;100187.75;5142268;27;20031;-65
2023/06/04 06:18:02;;;;;;;7.93;6.18;;;;;;;19.79;94.79;100181.97;5141933;27;20087;-65
2023/06/04 06:20:29;;;;;;;10.05;7.72;;;;;;;19.70;93.21;100186.72;5124113;27;20041;-65
2023/06/04 06:22:54;;;;;;;11.57;7.60;;;;;;;19.52;93.68;100191.91;5141575;27;20031;-65
2023/06/04 06:25:20;;;;;;;11.18;6.53;;;;;;;19.67;95.68;100192.50;5136247;27;20087;-65
2023/06/04 06:27:45;;;;;;;9.38;6.75;;;;;;;19.50;94.85;100202.84;5125062;27;20068;-65
2023/06/04 06:30:36;;;;;;;7.82;6.90;;;;;;;19.43;97.22;100193.97;5298709;22;20424;-63
2023/06/04 06:33:01;;;;;;;12.45;9.27;;;;;;;19.54;97.63;100190.69;5060643;28;20151;-64
2023/06/04 06:35:27;;;;;;;13.57;9.80;;;;;;;19.67;96.36;100204.09;5060857;28;21762;-64
2023/06/04 06:37:52;;;;;;;11.95;9.50;;;;;;;19.68;95.29;100197.69;5061735;28;20215;-64
2023/06/04 06:40:19;;;;;;;12.85;9.32;;;;;;;19.70;95.13;100200.16;5060877;28;20426;-64
2023/06/04 06:42:53;;;;;;;11.77;10.07;;;;;;;19.84;94.61;100199.13;5059119;28;20338;-64
2023/06/04 06:45:19;;;;;;;10.90;8.90;;;;;;;19.88;97.21;100196.84;5059698;28;20036;-64
2023/06/04 06:47:45;;;;;;;12.98;10.18;;;;;;;20.13;95.63;100200.47;5061938;28;20048;-64
2023/06/04 06:50:11;;;;;;;11.60;9.57;;;;;;;20.01;95.19;100194.09;5061712;28;20056;-64
2023/06/04 06:52:37;;;;;;;10.70;9.10;;;;;;;20.10;97.97;100198.19;5059364;28;20044;-64
2023/06/04 06:55:04;;;;;;;10.85;9.50;;;;;;;20.30;97.86;100204.31;5058148;28;20033;-64
2023/06/04 06:57:29;;;;;;;11.13;8.25;;;;;;;20.36;96.20;100202.63;5062733;28;20045;-64
2023/06/04 06:59:55;;;;;;;8.63;7.72;;;;;;;20.23;96.46;100211.59;5060644;28;20201;-64
2023/06/04 07:02:21;;;;;;;10.35;6.75;;;;;;;20.37;95.79;100207.78;5061084;28;20036;-64
2023/06/04 07:04:46;;;;;;;11.57;7.80;;;;;;;20.32;95.49;100213.00;5059992;28;20082;-64
2023/06/04 07:07:12;;;;;;;8.40;7.43;;;;;;;20.12;94.43;100219.50;5060446;28;20036;-64
2023/06/04 07:09:37;;;;;;;8.35;7.38;;;;;;;20.11;94.70;100226.72;5060422;28;20044;-64
2023/06/04 07:12:03;;;;;;;9.70;7.50;;;;;;;20.03;94.51;100219.72;5061880;28;20053;-64
2023/06/04 07:14:28;;;;;;;9.82;7.70;;;;;;;19.99;97.26;100207.75;5061311;28;20318;-64
2023/06/04 07:16:54;;;;;;;10.98;7.57;;;;;;;20.06;98.06;100219.31;5059346;28;20414;-64
2023/06/04 07:19:19;;;;;;;11.13;8.02;;;;;;;20.15;97.44;100227.13;5060883;28;20024;-64
2023/06/04 07:21:45;;;;;;;11.65;8.10;;;;;;;20.16;96.54;100228.78;5061207;28;20346;-64
2023/06/04 07:24:10;;;;;;;10.05;7.65;;;;;;;19.98;98.24;100227.59;5061176;28;20040;-64
2023/06/04 07:26:36;;;;;;;12.10;7.38;;;;;;;19.98;96.93;100232.97;5059944;28;20213;-64
2023/06/04 07:29:02;;;;;;;9.70;7.68;;;;;;;20.14;97.88;100236.22;5058686;28;20053;-64
2023/06/04 07:31:27;;;;;;;9.05;7.35;;;;;;;19.97;97.76;100241.25;5072845;28;20048;-64
2023/06/04 07:33:53;;;;;;;9.10;7.90;;;;;;;19.95;98.42;100244.16;5100341;28;20036;-64
2023/06/04 07:36:18;;;;;;;8.57;7.28;;;;;;;19.89;96.84;100244.16;5101108;28;20032;-64
2023/06/04 07:38:44;;;;;;;8.40;7.07;;;;;;;19.87;97.91;100244.38;5100954;28;20203;-64
2023/06/04 07:41:10;;;;;;;9.93;6.75;;;;;;;19.85;100.00;100241.06;5100738;28;20200;-64
2023/06/04 07:43:36;;;;;;;9.40;7.30;;;;;;;20.01;100.00;100240.63;5100975;28;20024;-64
2023/06/04 07:46:05;;;;;;;10.15;6.90;;;;;;;19.91;100.00;100237.53;5101304;28;20070;-64
2023/06/04 07:48:30;;;;;;;8.93;7.20;;;;;;;19.81;100.00;100247.91;5100480;28;20351;-64
2023/06/04 07:51:04;;;;;;;8.05;7.07;;;;;;;19.81;100.00;100250.59;5099897;28;20042;-64
2023/06/04 07:53:30;;;;;;;9.45;7.20;;;;;;;19.74;100.00;100252.44;5100472;28;20032;-64
2023/06/04 07:55:56;;;;;;;9.18;7.22;;;;;;;19.91;100.00;100245.59;5101026;28;20036;-64
2023/06/04 07:58:22;;;;;;;8.23;6.72;;;;;;;19.95;100.00;100254.91;5100753;28;20028;-64
2023/06/04 08:00:47;;;;;;;10.85;7.03;;;;;;;19.82;100.00;100256.78;5099037;28;20107;-64
2023/06/04 08:03:15;;;;;;;9.85;7.45;;;;;;;19.80;100.00;100253.50;5100288;28;20039;-64
2023/06/04 08:05:40;;;;;;;8.15;6.65;;;;;;;19.72;100.00;100257.19;5099743;28;20034;-64
2023/06/04 08:08:06;;;;;;;8.85;6.97;;;;;;;19.71;100.00;100256.38;5100592;28;20067;-64
2023/06/04 08:10:31;;;;;;;9.85;6.85;;;;;;;19.80;100.00;100253.50;5099462;28;20212;-64
2023/06/04 08:12:57;;;;;;;8.55;6.85;;;;;;;19.89;100.00;100258.44;5098118;28;20040;-64
2023/06/04 08:15:23;;;;;;;9.65;6.72;;;;;;;20.02;100.00;100261.09;5097900;28;20080;-64
2023/06/04 08:17:48;;;;;;;10.18;6.90;;;;;;;20.14;100.00;100260.44;5100435;28;20074;-64
2023/06/04 08:20:14;;;;;;;7.18;6.03;;;;;;;20.21;100.00;100255.84;5099253;28;20040;-64
2023/06/04 08:22:40;;;;;;;7.07;6.38;;;;;;;20.21;100.00;100267.44;5100163;28;20107;-64
2023/06/04 08:25:08;;;;;;;7.15;5.75;;;;;;;20.29;100.00;100258.31;5099072;28;20035;-64
2023/06/04 08:27:34;;;;;;;9.18;6.43;;;;;;;20.43;100.00;100257.25;5100273;28;20376;-64
2023/06/04 08:30:00;;;;;;;8.32;6.50;;;;;;;20.67;100.00;100261.06;5098356;28;20108;-64
2023/06/04 08:32:25;;;;;;;7.60;6.80;;;;;;;20.71;98.32;100270.34;5099710;28;20267;-64
2023/06/04 08:34:51;;;;;;;9.27;6.65;;;;;;;20.72;98.40;100264.75;5098693;28;20026;-64
2023/06/04 08:37:17;;;;;;;8.60;7.07;;;;;;;20.59;97.55;100266.69;5100081;28;20039;-64
2023/06/04 08:39:43;;;;;;;7.97;6.78;;;;;;;20.76;97.56;100258.94;5099474;28;20189;-64
2023/06/04 08:42:34;;;;;;;7.07;6.22;;;;;;;21.00;97.83;100272.50;5099616;28;20043;-64
2023/06/04 08:45:00;;;;;;;8.90;6.60;;;;;;;21.08;95.14;100271.41;5097409;28;20081;-64
2023/06/04 08:47:27;;;;;;;11.77;7.00;;;;;;;20.99;95.12;100268.16;5097038;28;20032;-64
2023/06/04 08:49:58;;;;;;;7.60;6.75;;;;;;;21.15;96.45;100274.88;5098559;28;20307;-64
2023/06/04 08:52:25;;;;;;;9.20;7.38;;;;;;;21.29;98.46;100273.75;5099131;28;20048;-64
2023/06/04 08:54:52;;;;;;;10.25;8.13;;;;;;;21.32;93.98;100269.81;5102139;28;20023;-64
2023/06/04 08:57:19;;;;;;;7.07;6.22;;;;;;;21.25;90.51;100274.41;5098558;28;20043;-64
2023/06/04 08:59:46;;;;;;;8.30;6.47;;;;;;;21.25;97.76;100274.41;5099312;28;20068;-64
2023/06/04 09:02:13;;;;;;;10.15;7.55;;;;;;;21.42;96.23;100264.75;5099799;28;20032;-64
2023/06/04 09:04:40;;;;;;;8.35;7.03;;;;;;;21.46;93.69;100273.22;5099648;28;20483;-64
2023/06/04 09:07:06;;;;;;;8.52;6.90;;;;;;;21.50;94.66;100282.50;5099047;28;20043;-64
2023/06/04 09:09:38;;;;;;;10.43;7.95;;;;;;;21.35;94.30;100278.28;5098220;28;20055;-64
2023/06/04 09:12:07;;;;;;;9.30;6.53;;;;;;;21.38;92.62;100274.31;5098653;28;20051;-64
2023/06/04 09:14:32;;;;;;;6.95;6.25;;;;;;;21.64;94.17;100278.66;5096961;28;20055;-64
2023/06/04 09:16:58;;;;;;;9.05;6.88;;;;;;;21.59;91.64;100275.78;5096805;28;20044;-64
2023/06/04 09:19:24;;;;;;;8.60;7.10;;;;;;;21.54;94.49;100267.56;5097778;28;20047;-64
2023/06/04 09:21:52;;;;;;;9.50;7.57;;;;;;;21.93;98.61;100269.88;5097720;28;20047;-64
2023/06/04 09:24:25;;;;;;;7.15;6.05;;;;;;;22.09;89.79;100271.22;5099408;28;20023;-64
2023/06/04 09:26:51;;;;;;;9.93;6.80;;;;;;;22.08;88.17;100280.34;5100262;28;20047;-64
2023/06/04 09:29:17;;;;;;;9.82;7.45;;;;;;;21.99;90.36;100271.69;5098840;28;20040;-64
2023/06/04 09:31:58;;;;;;;7.00;6.30;;;;;;;22.15;89.21;100272.19;5096845;28;20371;-64
2023/06/04 09:34:28;;;;;;;7.65;6.00;;;;;;;22.03;87.41;100268.59;5097818;28;20032;-64
2023/06/04 09:36:54;;;;;;;7.53;6.28;;;;;;;22.02;90.83;100272.28;5096490;28;20054;-64
2023/06/04 09:39:19;;;;;;;8.18;6.18;;;;;;;21.97;88.44;100276.47;5095584;28;20032;-64
2023/06/04 09:41:56;;;;;;;8.52;6.03;;;;;;;21.83;88.13;100280.34;5096502;28;20036;-64
2023/06/04 09:44:22;;;;;;;5.82;5.22;;;;;;;21.89;87.98;100273.25;5098403;28;20038;-64
2023/06/04 09:46:54;;;;;;;5.85;5.20;;;;;;;21.95;82.40;100277.75;5097581;28;20032;-64
2023/06/04 09:49:20;;;;;;;6.17;4.50;;;;;;;22.04;81.87;100267.53;5096542;28;20024;-64
2023/06/04 09:51:48;;;;;;;8.13;5.80;;;;;;;21.92;83.93;100270.13;5096180;28;20675;-64
2023/06/04 09:54:14;;;;;;;6.90;4.90;;;;;;;22.05;82.17;100279.97;5098436;28;20315;-64
2023/06/04 09:56:40;;;;;;;5.90;4.70;;;;;;;22.12;80.15;100283.41;5098043;28;20385;-64
2023/06/04 09:59:08;;;;;;;7.07;5.28;;;;;;;22.17;82.51;100283.56;5098894;28;20031;-64
2023/06/04 10:01:38;;;;;;;7.78;5.15;;;;;;;22.21;82.51;100284.75;5097934;28;20032;-64
2023/06/04 10:04:06;;;;;;;4.35;3.70;;;;;;;22.19;70.94;100285.00;5098794;28;20040;-64
2023/06/04 10:06:35;;;;;;;7.50;5.13;;;;;;;22.26;74.65;100282.22;5096358;28;20040;-64
2023/06/04 10:09:08;;;;;;;5.60;4.40;;;;;;;22.33;74.68;100276.75;5095597;28;20361;-64
2023/06/04 10:11:37;;;;;;;6.22;4.65;;;;;;;22.34;76.18;100279.22;5098742;28;20032;-64
2023/06/04 10:14:17;;;;;;;6.50;4.47;;;;;;;22.34;71.56;100286.47;5099834;28;20255;-64
2023/06/04 10:16:43;;;;;;;6.07;4.53;;;;;;;22.54;79.01;100282.50;5101326;28;20051;-64
2023/06/04 10:19:10;;;;;;;6.15;4.30;;;;;;;22.41;76.52;100279.97;5101458;28;20036;-64
2023/06/04 10:21:36;;;;;;;9.25;5.50;;;;;;;22.39;79.95;100275.84;5102327;28;20333;-64
2023/06/04 10:24:01;;;;;;;6.80;5.82;;;;;;;22.67;82.89;100270.69;5103204;28;20067;-64
2023/06/04 10:26:27;;;;;;;7.50;6.13;;;;;;;22.65;81.16;100255.78;5101573;28;20043;-64
2023/06/04 10:28:53;;;;;;;8.15;7.07;;;;;;;22.87;81.09;100259.66;5101326;28;20036;-64
2023/06/04 10:31:18;;;;;;;8.13;6.75;;;;;;;22.99;80.67;100263.25;5101273;28;20129;-64
2023/06/04 10:33:44;;;;;;;7.13;5.57;;;;;;;22.91;82.64;100272.50;5102392;28;20267;-64
2023/06/04 10:36:20;;;;;;;11.45;8.20;;;;;;;22.42;86.05;100272.69;5101039;28;20040;-64
2023/06/04 10:38:51;;;;;;;10.13;8.43;;;;;;;22.21;91.57;100272.09;5101321;28;20081;-64
2023/06/04 10:41:18;;;;;;;10.48;7.72;;;;;;;22.24;91.43;100260.03;5102641;28;20035;-64
2023/06/04 10:43:51;;;;;;;9.65;8.65;;;;;;;22.28;92.05;100263.94;5101754;28;20089;-64
2023/06/04 10:46:19;;;;;;;9.45;8.43;;;;;;;22.45;89.89;100264.13;5101775;28;20024;-64
2023/06/04 10:48:52;;;;;;;6.55;5.63;;;;;;;22.51;87.26;100268.63;5101278;28;20047;-64
2023/06/04 10:51:30;;;;;;;10.57;9.00;;;;;;;22.59;89.29;100252.94;5105919;28;20055;-64
2023/06/04 10:53:57;;;;;;;11.20;8.77;;;;;;;22.40;90.80;100245.09;5101703;28;20036;-64
2023/06/04 10:56:37;;;;;;;10.25;9.15;;;;;;;22.45;89.21;100256.88;5101683;28;20040;-64
2023/06/04 10:59:17;;;;;;;8.98;8.07;;;;;;;22.57;89.00;100240.72;5106533;28;20399;-64
2023/06/04 11:01:42;;;;;;;10.63;8.98;;;;;;;22.61;88.21;100245.44;5100200;28;20360;-64
2023/06/04 11:04:26;;;;;;;9.32;8.43;;;;;;;22.67;86.92;100259.91;5100809;28;20031;-64
2023/06/04 11:07:02;;;;;;;11.77;8.02;;;;;;;22.45;86.28;100246.06;5101432;28;20042;-64
2023/06/04 11:09:27;;;;;;;10.13;7.47;;;;;;;22.40;87.83;100251.34;5100950;28;20070;-64
2023/06/04 11:11:57;;;;;;;9.63;8.68;;;;;;;22.54;86.00;100247.41;5100414;28;20048;-64
2023/06/04 11:14:22;;;;;;;9.40;7.97;;;;;;;22.60;83.56;100248.38;5105089;28;20031;-64
2023/06/04 11:16:48;;;;;;;10.85;8.13;;;;;;;22.43;83.50;100258.16;5101234;28;20203;-64
2023/06/04 11:19:13;;;;;;;9.65;8.63;;;;;;;22.48;85.29;100255.59;5100209;28;20032;-64
2023/06/04 11:21:39;;;;;;;9.73;8.27;;;;;;;22.16;82.52;100253.06;5098314;28;20032;-64
2023/06/04 11:24:05;;;;;;;11.75;8.07;;;;;;;21.97;86.14;100248.69;5099534;28;20083;-64